createdAt,value
2023-05-15T00:01:11.496Z,69.27
2023-05-15T00:03:56.763Z,68.57
2023-05-15T00:06:42.463Z,67.42
2023-05-15T00:09:28.024Z,67.17
2023-05-15T00:12:13.240Z,66.92
2023-05-15T00:14:58.765Z,68.09
2023-05-15T00:17:44.448Z,68.45
2023-05-15T00:20:29.839Z,69.03
2023-05-15T00:23:15.423Z,69.69
2023-05-15T00:26:01.053Z,71.03
2023-05-15T00:28:46.440Z,71.28
2023-05-15T00:31:32.942Z,70.80
2023-05-15T00:34:18.733Z,72.18
2023-05-15T00:37:05.826Z,73.50
2023-05-15T00:39:51.630Z,73.87
2023-05-15T00:42:37.769Z,73.55
2023-05-15T00:45:25.567Z,73.18
2023-05-15T00:48:12.434Z,73.09
2023-05-15T00:50:59.740Z,73.05
2023-05-15T00:53:45.873Z,72.77
2023-05-15T00:56:32.559Z,72.66
2023-05-15T00:59:21.396Z,72.14
2023-05-15T01:02:08.620Z,71.70
2023-05-15T01:04:54.363Z,71.17
2023-05-15T01:07:56.788Z,70.57
2023-05-15T01:10:45.140Z,70.72
2023-05-15T01:13:33.080Z,70.83
2023-05-15T01:16:21.477Z,70.65
2023-05-15T01:19:07.755Z,70.45
2023-05-15T01:22:02.495Z,70.62
2023-05-15T01:25:13.653Z,70.35
2023-05-15T01:28:05.815Z,70.17
2023-05-15T01:30:54.816Z,70.12
2023-05-15T01:33:45.155Z,70.09
2023-05-15T01:36:47.588Z,70.34
2023-05-15T01:39:35.304Z,69.98
2023-05-15T01:42:27.059Z,70.07
2023-05-15T01:45:13.463Z,70.27
2023-05-15T01:48:00.338Z,70.00
2023-05-15T01:50:50.545Z,70.78
2023-05-15T01:53:37.810Z,70.69
2023-05-15T01:56:24.087Z,71.27
2023-05-15T01:59:16.043Z,71.02
2023-05-15T02:02:04.825Z,70.90
2023-05-15T02:04:52.175Z,71.00
2023-05-15T02:07:41.456Z,71.40
2023-05-15T02:10:28.147Z,71.35
2023-05-15T02:13:14.501Z,71.60
2023-05-15T02:16:00.190Z,71.49
2023-05-15T02:18:46.178Z,71.79
2023-05-15T02:21:34.876Z,71.83
2023-05-15T02:24:20.386Z,71.86
2023-05-15T02:27:26.498Z,71.81
2023-05-15T02:30:33.682Z,71.84
2023-05-15T02:33:30.734Z,72.14
2023-05-15T02:36:23.059Z,71.81
2023-05-15T02:39:11.293Z,71.94
2023-05-15T02:42:01.304Z,71.89
2023-05-15T02:44:48.306Z,71.72
2023-05-15T02:47:34.562Z,71.66
2023-05-15T02:50:20.296Z,71.49
2023-05-15T02:53:07.099Z,71.67
2023-05-15T02:55:52.449Z,71.64
2023-05-15T02:58:38.950Z,71.57
2023-05-15T03:01:24.289Z,71.40
2023-05-15T03:04:09.861Z,71.54
2023-05-15T03:06:55.796Z,71.80
2023-05-15T03:09:41.342Z,71.82
2023-05-15T03:12:27.866Z,71.76
2023-05-15T03:15:13.833Z,71.60
2023-05-15T03:17:59.562Z,71.19
2023-05-15T03:20:46.443Z,70.70
2023-05-15T03:23:32.301Z,70.22
2023-05-15T03:26:18.585Z,69.93
2023-05-15T03:29:04.165Z,69.76
2023-05-15T03:31:50.109Z,70.05
2023-05-15T03:34:36.459Z,69.81
2023-05-15T03:37:22.121Z,70.33
2023-05-15T03:40:08.686Z,70.86
2023-05-15T03:42:56.629Z,70.96
2023-05-15T03:45:41.865Z,70.88
2023-05-15T03:48:27.706Z,70.72
2023-05-15T03:51:15.543Z,71.07
2023-05-15T03:54:00.930Z,70.70
2023-05-15T03:56:46.469Z,69.80
2023-05-15T03:59:31.842Z,69.71
2023-05-15T04:02:17.106Z,69.09
2023-05-15T04:05:04.738Z,68.32
2023-05-15T04:07:50.047Z,68.22
2023-05-15T04:10:35.481Z,68.33
2023-05-15T04:13:20.888Z,68.02
2023-05-15T04:16:07.268Z,67.57
2023-05-15T04:18:53.064Z,67.84
2023-05-15T04:21:38.384Z,67.62
2023-05-15T04:24:23.807Z,66.58
2023-05-15T04:27:09.240Z,66.01
2023-05-15T04:29:54.837Z,65.59
2023-05-15T04:32:40.602Z,65.51
2023-05-15T04:35:26.432Z,65.82
2023-05-15T04:38:12.421Z,66.11
2023-05-15T04:40:58.494Z,65.96
2023-05-15T04:43:43.975Z,66.27
2023-05-15T04:46:29.543Z,66.49
2023-05-15T04:49:15.869Z,66.46
2023-05-15T04:52:01.185Z,66.14
2023-05-15T04:54:49.099Z,66.12
2023-05-15T04:57:35.521Z,66.02
2023-05-15T05:00:21.303Z,65.30
2023-05-15T05:03:09.668Z,64.42
2023-05-15T05:05:57.265Z,63.62
2023-05-15T05:08:46.789Z,63.50
2023-05-15T05:11:31.924Z,63.86
2023-05-15T05:14:17.515Z,63.14
2023-05-15T05:17:03.195Z,62.50
2023-05-15T05:19:50.004Z,62.18
2023-05-15T05:22:35.896Z,61.99
2023-05-15T05:25:21.351Z,61.13
2023-05-15T05:28:08.288Z,60.82
2023-05-15T05:30:53.596Z,60.60
2023-05-15T05:33:39.239Z,61.18
2023-05-15T05:36:25.083Z,61.90
2023-05-15T05:39:12.118Z,61.84
2023-05-15T05:41:57.590Z,61.29
2023-05-15T05:44:43.570Z,61.16
2023-05-15T05:47:29.326Z,61.08
2023-05-15T05:50:16.865Z,60.93
2023-05-15T05:53:04.786Z,61.78
2023-05-15T05:55:50.141Z,61.53
2023-05-15T05:58:35.796Z,60.63
2023-05-15T06:01:21.750Z,60.33
2023-05-15T06:04:07.267Z,60.57
2023-05-15T06:07:00.666Z,59.79
2023-05-15T06:09:48.174Z,59.38
2023-05-15T06:12:33.798Z,58.39
2023-05-15T06:15:19.140Z,57.64
2023-05-15T06:18:07.228Z,56.85
2023-05-15T06:20:54.330Z,55.96
2023-05-15T06:23:39.893Z,55.16
2023-05-15T06:26:25.070Z,54.75
2023-05-15T06:29:10.863Z,55.76
2023-05-15T06:31:56.768Z,54.93
2023-05-15T06:34:42.471Z,55.06
2023-05-15T06:37:28.472Z,53.44
2023-05-15T06:40:16.992Z,52.86
2023-05-15T06:43:08.239Z,50.52
2023-05-15T06:47:11.355Z,51.87
2023-05-15T06:50:10.138Z,51.84
2023-05-15T06:53:03.768Z,51.02
2023-05-15T06:55:49.480Z,50.14
2023-05-15T06:58:35.811Z,50.97
2023-05-15T07:01:21.246Z,51.12
2023-05-15T07:04:13.056Z,51.16
2023-05-15T07:06:58.806Z,51.58
2023-05-15T07:09:47.740Z,51.84
2023-05-15T07:12:33.833Z,52.43
2023-05-15T07:15:19.855Z,54.43
2023-05-15T07:18:06.179Z,53.78
2023-05-15T07:20:52.080Z,53.28
2023-05-15T07:23:37.710Z,53.65
2023-05-15T07:26:34.217Z,54.75
2023-05-15T07:29:26.492Z,52.80
2023-05-15T07:32:12.583Z,52.61
2023-05-15T07:35:11.021Z,51.93
2023-05-15T07:37:56.533Z,51.02
2023-05-15T07:40:42.129Z,51.48
2023-05-15T07:43:27.664Z,51.79
2023-05-15T07:46:13.098Z,52.05
2023-05-15T07:48:58.361Z,50.43
2023-05-15T07:51:44.887Z,49.80
2023-05-15T07:54:31.621Z,50.09
2023-05-15T07:57:17.585Z,49.44
2023-05-15T08:00:16.542Z,49.72
2023-05-15T08:03:03.198Z,48.80
2023-05-15T08:06:13.959Z,48.33
2023-05-15T08:09:00.261Z,47.84
2023-05-15T08:11:45.612Z,48.53
2023-05-15T08:14:31.064Z,48.49
2023-05-15T08:17:16.925Z,49.36
2023-05-15T08:20:02.694Z,49.62
2023-05-15T08:22:48.579Z,48.53
2023-05-15T08:25:35.684Z,48.08
2023-05-15T08:32:07.931Z,47.10
2023-05-15T08:35:00.033Z,46.47
2023-05-15T08:37:48.122Z,46.89
2023-05-15T08:40:39.092Z,46.91
2023-05-15T08:43:26.586Z,45.96
2023-05-15T08:46:15.129Z,44.90
2023-05-15T08:49:20.931Z,44.34
2023-05-15T08:52:06.919Z,43.37
2023-05-15T08:54:52.713Z,44.46
2023-05-15T08:57:38.211Z,41.45
2023-05-15T09:00:25.052Z,41.29
2023-05-15T09:03:23.893Z,40.88
2023-05-15T09:06:57.995Z,41.27
2023-05-15T09:09:50.067Z,42.61
2023-05-15T09:12:42.493Z,42.41
2023-05-15T09:15:29.960Z,42.56
2023-05-15T09:18:16.509Z,43.43
2023-05-15T09:21:38.847Z,43.65
2023-05-15T09:24:27.894Z,43.77
2023-05-15T09:27:14.620Z,42.10
2023-05-15T09:30:10.652Z,42.82
2023-05-15T09:33:10.677Z,42.01
2023-05-15T09:35:59.180Z,39.83
2023-05-15T09:38:47.780Z,41.29
2023-05-15T09:44:43.295Z,42.34
2023-05-15T09:47:29.287Z,38.42
2023-05-15T09:50:23.040Z,38.57
2023-05-15T09:53:12.282Z,41.46
2023-05-15T09:59:55.593Z,40.98
2023-05-15T10:02:41.009Z,41.90
2023-05-15T10:05:42.088Z,41.36
2023-05-15T10:08:28.920Z,40.37
2023-05-15T10:11:15.393Z,39.57
2023-05-15T10:14:01.953Z,40.17
2023-05-15T10:16:47.969Z,41.48
2023-05-15T10:19:34.743Z,38.92
2023-05-15T10:22:29.482Z,38.21
2023-05-15T10:25:46.854Z,39.31
2023-05-15T10:28:42.312Z,38.80
2023-05-15T10:31:33.956Z,38.12
2023-05-15T10:34:20.477Z,37.50
2023-05-15T10:37:14.023Z,38.76
2023-05-15T10:40:01.365Z,37.31
2023-05-15T10:42:48.746Z,38.87
2023-05-15T10:45:35.019Z,40.77
2023-05-15T10:48:21.886Z,41.13
2023-05-15T10:51:19.136Z,40.70
2023-05-15T10:54:05.391Z,41.18
2023-05-15T10:56:52.359Z,40.16
2023-05-15T10:59:38.003Z,40.98
2023-05-15T11:02:30.133Z,41.29
2023-05-15T11:05:15.892Z,41.43
2023-05-15T11:08:22.765Z,42.12
2023-05-15T11:11:08.344Z,43.21
2023-05-15T11:14:09.073Z,43.18
2023-05-15T11:17:10.526Z,40.96
2023-05-15T11:20:34.463Z,41.78
2023-05-15T11:23:21.811Z,42.85
2023-05-15T11:26:07.560Z,41.30
2023-05-15T11:28:54.077Z,41.33
2023-05-15T11:31:55.525Z,41.61
2023-05-15T11:34:48.937Z,39.68
2023-05-15T11:37:56.676Z,39.66
2023-05-15T11:40:46.802Z,36.65
2023-05-15T11:43:35.479Z,34.87
2023-05-15T11:47:13.692Z,36.35
2023-05-15T11:50:00.536Z,38.22
2023-05-15T11:52:50.549Z,37.19
2023-05-15T11:55:39.657Z,35.92
2023-05-15T11:58:32.939Z,35.95
2023-05-15T12:01:18.975Z,35.75
2023-05-15T12:09:26.728Z,36.40
2023-05-15T12:12:13.902Z,36.93
2023-05-15T12:14:59.858Z,35.71
2023-05-15T12:17:45.744Z,35.61
2023-05-15T12:20:35.179Z,35.36
2023-05-15T12:23:22.401Z,33.26
2023-05-15T12:26:08.144Z,35.86
2023-05-15T12:28:55.116Z,38.54
2023-05-15T12:31:40.767Z,39.71
2023-05-15T12:34:26.642Z,37.54
2023-05-15T12:37:20.408Z,37.85
2023-05-15T12:40:11.224Z,38.46
2023-05-15T12:42:56.738Z,38.15
2023-05-15T12:45:42.500Z,37.37
2023-05-15T12:48:31.914Z,37.02
2023-05-15T12:51:23.403Z,38.30
2023-05-15T12:54:25.570Z,37.98
2023-05-15T12:57:12.099Z,39.41
2023-05-15T12:59:59.552Z,39.92
2023-05-15T13:02:45.417Z,38.54
2023-05-15T13:05:32.560Z,37.96
2023-05-15T13:08:19.841Z,38.21
2023-05-15T13:11:05.688Z,37.04
2023-05-15T13:13:52.392Z,36.51
2023-05-15T13:16:38.395Z,36.10
2023-05-15T13:19:24.016Z,35.57
2023-05-15T13:22:10.505Z,35.52
2023-05-15T13:24:58.385Z,36.39
2023-05-15T13:27:44.284Z,35.50
2023-05-15T13:30:32.717Z,34.01
2023-05-15T13:33:18.459Z,35.13
2023-05-15T13:36:04.596Z,33.03
2023-05-15T13:38:50.988Z,33.42
2023-05-15T13:41:37.204Z,34.11
2023-05-15T13:44:22.338Z,35.10
2023-05-15T13:47:07.895Z,35.48
2023-05-15T13:49:54.321Z,36.80
2023-05-15T13:52:40.744Z,37.05
2023-05-15T13:55:27.030Z,36.70
2023-05-15T13:58:13.111Z,36.26
2023-05-15T14:01:05.315Z,36.37
2023-05-15T14:03:50.787Z,35.43
2023-05-15T14:06:36.360Z,34.32
2023-05-15T14:09:21.883Z,34.84
2023-05-15T14:12:09.136Z,36.15
2023-05-15T14:14:55.163Z,35.71
2023-05-15T14:17:40.675Z,36.69
2023-05-15T14:20:26.743Z,36.59
2023-05-15T14:23:12.380Z,36.58
2023-05-15T14:25:57.854Z,36.46
2023-05-15T14:28:43.468Z,36.38
2023-05-15T14:31:29.429Z,36.63
2023-05-15T14:34:15.825Z,34.89
2023-05-15T14:37:01.765Z,34.51
2023-05-15T14:39:47.290Z,35.44
2023-05-15T14:42:32.467Z,34.85
2023-05-15T14:45:17.762Z,35.04
2023-05-15T14:48:03.405Z,35.11
2023-05-15T14:50:49.042Z,35.34
2023-05-15T14:53:34.476Z,34.78
2023-05-15T14:56:20.143Z,34.13
2023-05-15T14:59:05.329Z,34.72
2023-05-15T15:01:50.832Z,35.06
2023-05-15T15:04:36.398Z,34.51
2023-05-15T15:07:22.051Z,35.52
2023-05-15T15:10:30.240Z,35.03
2023-05-15T15:13:32.946Z,35.36
2023-05-15T15:16:35.494Z,35.28
2023-05-15T15:19:58.134Z,35.57
2023-05-15T15:23:02.480Z,35.89
2023-05-15T15:26:11.469Z,38.19
2023-05-15T15:29:00.303Z,38.91
2023-05-15T15:35:34.757Z,42.12
2023-05-15T15:38:24.029Z,42.96
2023-05-15T15:44:50.385Z,45.33
2023-05-15T15:48:05.989Z,44.71
2023-05-15T15:50:52.885Z,45.72
2023-05-15T15:53:39.081Z,46.62
2023-05-15T15:56:24.645Z,47.54
2023-05-15T15:59:10.383Z,48.49
2023-05-15T16:01:57.421Z,49.10
2023-05-15T16:04:42.917Z,48.64
2023-05-15T16:07:29.176Z,48.55
2023-05-15T16:10:16.794Z,50.07
2023-05-15T16:13:02.060Z,50.51
2023-05-15T16:15:49.168Z,50.70
2023-05-15T16:18:34.794Z,50.35
2023-05-15T16:21:20.905Z,50.82
2023-05-15T16:24:06.202Z,51.42
2023-05-15T16:26:52.011Z,52.25
2023-05-15T16:29:37.264Z,52.41
2023-05-15T16:32:22.963Z,52.43
2023-05-15T16:35:08.540Z,52.69
2023-05-15T16:37:54.223Z,53.18
2023-05-15T16:40:39.840Z,53.90
2023-05-15T16:43:25.780Z,53.90
2023-05-15T16:46:13.204Z,54.42
2023-05-15T16:49:03.206Z,54.85
2023-05-15T16:55:17.330Z,54.94
2023-05-15T17:01:17.036Z,56.15
2023-05-15T17:04:06.649Z,55.93
2023-05-15T17:10:31.387Z,55.13
2023-05-15T17:20:05.160Z,55.87
2023-05-15T17:23:02.102Z,55.72
2023-05-15T17:26:23.327Z,56.24
2023-05-15T17:29:17.363Z,56.67
2023-05-15T17:32:39.105Z,57.33
2023-05-15T17:35:47.559Z,58.03
2023-05-15T17:39:15.600Z,58.32
2023-05-15T17:42:33.841Z,58.46
2023-05-15T17:45:19.285Z,58.82
2023-05-15T17:48:06.292Z,59.12
2023-05-15T17:50:57.933Z,59.46
2023-05-15T17:54:02.887Z,60.15
2023-05-15T18:01:06.864Z,61.08
2023-05-15T18:04:09.862Z,60.97
2023-05-15T18:10:16.657Z,61.64
2023-05-15T18:13:05.022Z,61.51
2023-05-15T18:15:50.689Z,61.43
2023-05-15T18:18:37.018Z,61.94
2023-05-15T18:21:22.714Z,62.32
2023-05-15T18:24:08.199Z,62.85
2023-05-15T18:26:53.606Z,63.14
2023-05-15T18:40:06.286Z,62.71
2023-05-15T18:49:23.152Z,61.52
2023-05-15T18:52:08.641Z,61.20
2023-05-15T18:55:43.801Z,61.17
2023-05-15T18:58:20.322Z,61.43
2023-05-15T19:01:05.975Z,61.86
2023-05-15T19:07:17.907Z,61.84
2023-05-15T19:17:28.669Z,63.34
2023-05-15T19:20:19.852Z,63.66
2023-05-15T19:23:05.647Z,63.54
2023-05-15T19:26:11.674Z,63.69
2023-05-15T19:29:02.968Z,63.79
2023-05-15T19:34:55.712Z,63.76
2023-05-15T19:37:44.439Z,63.68
2023-05-15T19:40:29.984Z,63.97
2023-05-15T19:43:15.575Z,63.40
2023-05-15T19:46:04.767Z,63.05
2023-05-15T19:48:50.614Z,63.11
2023-05-15T19:51:35.994Z,63.65
2023-05-15T19:54:21.469Z,63.82
2023-05-15T19:57:06.994Z,63.54
2023-05-15T19:59:52.301Z,63.81
2023-05-15T20:02:37.816Z,63.82
2023-05-15T20:05:23.359Z,64.45
2023-05-15T20:08:09.306Z,64.30
2023-05-15T20:10:54.871Z,64.61
2023-05-15T20:13:41.275Z,64.51
2023-05-15T20:16:26.586Z,63.83
2023-05-15T20:19:13.081Z,63.92
2023-05-15T20:21:58.795Z,64.12
2023-05-15T20:24:45.307Z,63.97
2023-05-15T20:27:30.836Z,63.87
2023-05-15T20:30:16.503Z,64.01
2023-05-15T20:33:01.728Z,64.13
2023-05-15T20:35:50.823Z,64.10
2023-05-15T20:38:36.828Z,64.29
2023-05-15T20:41:23.038Z,63.96
2023-05-15T20:44:08.614Z,64.11
2023-05-15T20:46:54.249Z,64.12
2023-05-15T20:49:39.817Z,63.89
2023-05-15T20:52:25.598Z,64.15
2023-05-15T20:55:15.514Z,64.38
2023-05-15T20:58:01.496Z,64.59
2023-05-15T21:00:47.173Z,64.52
2023-05-15T21:03:32.411Z,64.76
2023-05-15T21:06:17.885Z,64.83
2023-05-15T21:09:03.581Z,64.63
2023-05-15T21:11:48.891Z,64.58
2023-05-15T21:14:34.153Z,64.73
2023-05-15T21:17:19.794Z,64.98
2023-05-15T21:20:06.494Z,65.56
2023-05-15T21:22:51.734Z,65.67
2023-05-15T21:25:37.543Z,65.52
2023-05-15T21:28:23.211Z,65.51
2023-05-15T21:31:10.077Z,65.36
2023-05-15T21:33:55.516Z,65.31
2023-05-15T21:36:41.193Z,65.32
2023-05-15T21:39:26.661Z,65.77
2023-05-15T21:42:13.368Z,65.88
2023-05-15T21:44:59.355Z,65.83
2023-05-15T21:47:45.269Z,65.71
2023-05-15T21:50:31.136Z,65.94
2023-05-15T21:53:16.826Z,65.83
2023-05-15T21:56:03.087Z,65.93
2023-05-15T21:58:48.348Z,65.99
2023-05-15T22:01:33.881Z,66.21
2023-05-15T22:04:19.326Z,66.25
2023-05-15T22:07:04.759Z,66.33
2023-05-15T22:09:50.803Z,66.19
2023-05-15T22:12:36.993Z,66.13
2023-05-15T22:15:22.377Z,66.11
2023-05-15T22:18:08.081Z,65.77
2023-05-15T22:20:54.655Z,65.70
2023-05-15T22:23:40.109Z,65.58
2023-05-15T22:26:26.211Z,65.56
2023-05-15T22:29:11.693Z,65.61
2023-05-15T22:31:59.883Z,65.84
2023-05-15T22:34:45.540Z,66.08
2023-05-15T22:37:30.977Z,66.66
2023-05-15T22:40:16.904Z,66.73
2023-05-15T22:43:02.314Z,66.75
2023-05-15T22:45:47.733Z,66.86
2023-05-15T22:48:34.556Z,66.72
2023-05-15T22:51:20.118Z,66.81
2023-05-15T22:54:05.719Z,66.91
2023-05-15T22:56:52.221Z,66.89
2023-05-15T22:59:37.684Z,66.92
2023-05-15T23:02:23.556Z,67.16
2023-05-15T23:05:09.196Z,67.10
2023-05-15T23:07:55.190Z,67.06
2023-05-15T23:10:40.774Z,67.10
2023-05-15T23:13:26.276Z,67.03
2023-05-15T23:16:11.853Z,67.03
2023-05-15T23:18:57.746Z,67.14
2023-05-15T23:21:43.418Z,67.29
2023-05-15T23:24:29.059Z,67.53
2023-05-15T23:27:14.335Z,67.43
2023-05-15T23:30:00.192Z,67.48
2023-05-15T23:32:45.831Z,67.61
2023-05-15T23:35:31.439Z,67.68
2023-05-15T23:38:16.803Z,67.52
2023-05-15T23:41:02.158Z,68.05
2023-05-15T23:43:50.440Z,67.99
2023-05-15T23:46:37.628Z,68.04
2023-05-15T23:49:23.063Z,68.21
2023-05-15T23:52:08.812Z,68.24
2023-05-15T23:54:54.090Z,68.51
2023-05-15T23:57:40.040Z,68.53
